Time;durP1;ratioP1;P1;durP2;ratioP2;P2;SDS_P1;SDS_P2;PMS_P1;PMS_P2;Temp;Humidity;BMP_temperature;BMP_pressure;BME280_temperature;BME280_humidity;BME280_pressure;Samples;Min_cycle;Max_cycle;Signal;HPM_P1;HPM_P2
2021/07/26 00:02:26;;;;;;;9.73;4.93;;;23.50;99.90;;;;;;5043406;28;20229;-75
2021/07/26 00:04:52;;;;;;;8.57;4.80;;;23.50;99.90;;;;;;5041259;28;20206;-75
2021/07/26 00:07:18;;;;;;;7.32;4.68;;;23.50;99.90;;;;;;5039875;28;20787;-76
2021/07/26 00:09:47;;;;;;;10.35;5.10;;;23.50;99.90;;;;;;5042081;28;20190;-74
2021/07/26 00:12:13;;;;;;;7.68;5.00;;;23.50;99.90;;;;;;5039424;28;20992;-75
2021/07/26 00:14:40;;;;;;;10.07;5.40;;;23.50;99.90;;;;;;5045170;28;20187;-77
2021/07/26 00:17:06;;;;;;;10.57;5.38;;;23.50;99.90;;;;;;5027731;28;20517;-74
2021/07/26 00:19:32;;;;;;;11.60;5.32;;;23.50;99.90;;;;;;5021602;28;20176;-77
2021/07/26 00:21:59;;;;;;;10.50;4.80;;;23.40;99.90;;;;;;5040828;28;20187;-74
2021/07/26 00:24:25;;;;;;;9.60;4.80;;;23.40;99.90;;;;;;5025460;28;20179;-75
2021/07/26 00:26:51;;;;;;;12.88;4.75;;;23.40;99.90;;;;;;5059114;28;20199;-78
2021/07/26 00:29:18;;;;;;;7.55;4.63;;;23.40;99.90;;;;;;5043367;28;20184;-76
2021/07/26 00:31:44;;;;;;;7.07;4.30;;;23.40;99.90;;;;;;5045397;28;20193;-76
2021/07/26 00:34:29;;;;;;;8.00;4.57;;;23.30;99.90;;;;;;5044889;28;20176;-76
2021/07/26 00:37:01;;;;;;;9.30;4.53;;;23.40;99.90;;;;;;5059033;28;20199;-76
2021/07/26 00:39:36;;;;;;;9.47;4.63;;;23.50;99.90;;;;;;5048170;28;20271;-76
2021/07/26 00:42:03;;;;;;;8.50;4.10;;;23.50;99.90;;;;;;5045726;28;20561;-76
2021/07/26 00:44:33;;;;;;;15.40;4.33;;;23.50;99.90;;;;;;5060292;28;20648;-76
2021/07/26 00:47:01;;;;;;;8.87;4.10;;;23.50;99.90;;;;;;5027142;28;20265;-76
2021/07/26 00:49:28;;;;;;;8.63;4.00;;;23.50;99.90;;;;;;5034619;28;20273;-74
2021/07/26 00:51:58;;;;;;;7.13;4.20;;;23.40;99.90;;;;;;5040230;28;20186;-75
2021/07/26 00:54:33;;;;;;;8.23;4.10;;;23.40;99.90;;;;;;5044349;28;20223;-75
2021/07/26 00:57:03;;;;;;;7.82;4.18;;;23.40;99.90;;;;;;5059835;28;20321;-77
2021/07/26 00:59:31;;;;;;;10.63;4.60;;;23.30;99.90;;;;;;5027603;28;20190;-75
2021/07/26 01:01:58;;;;;;;6.83;4.40;;;23.30;99.90;;;;;;5059956;28;20210;-74
2021/07/26 01:04:26;;;;;;;8.93;3.83;;;23.20;99.90;;;;;;5025332;28;20199;-77
2021/07/26 01:06:54;;;;;;;5.63;4.13;;;23.20;99.90;;;;;;5043538;28;20175;-73
2021/07/26 01:09:20;;;;;;;6.97;4.57;;;23.20;99.90;;;;;;5041634;28;20818;-73
2021/07/26 01:11:48;;;;;;;5.63;4.50;;;23.30;99.90;;;;;;5061143;28;21029;-75
2021/07/26 01:14:16;;;;;;;7.22;4.47;;;23.30;99.90;;;;;;5044827;28;20212;-74
2021/07/26 01:16:52;;;;;;;10.90;4.60;;;23.20;99.90;;;;;;5059499;28;20179;-74
2021/07/26 01:19:18;;;;;;;7.40;4.00;;;23.20;99.90;;;;;;5053916;28;20311;-74
2021/07/26 01:21:45;;;;;;;11.40;4.87;;;23.30;99.90;;;;;;5052029;28;20218;-76
2021/07/26 01:24:11;;;;;;;7.60;4.30;;;23.30;99.90;;;;;;5040411;28;20214;-73
2021/07/26 01:26:38;;;;;;;10.25;4.90;;;23.20;99.90;;;;;;5042644;28;20692;-73
2021/07/26 01:29:08;;;;;;;12.77;5.13;;;23.10;99.90;;;;;;5041234;28;20242;-75
2021/07/26 01:31:34;;;;;;;7.85;4.93;;;23.10;99.90;;;;;;5058093;28;20188;-76
2021/07/26 01:34:01;;;;;;;6.80;5.35;;;23.10;99.90;;;;;;5044952;28;20241;-75
2021/07/26 01:36:28;;;;;;;8.53;5.23;;;23.10;99.90;;;;;;5042848;28;20194;-75
2021/07/26 01:38:55;;;;;;;9.57;5.10;;;23.10;99.90;;;;;;5040267;28;20227;-75
2021/07/26 01:41:26;;;;;;;11.13;5.00;;;23.10;99.90;;;;;;5039666;28;20187;-74
2021/07/26 01:44:06;;;;;;;8.73;4.63;;;23.00;99.90;;;;;;5021785;28;20287;-75
2021/07/26 01:47:05;;;;;;;6.90;4.80;;;23.10;99.90;;;;;;5042729;28;20234;-77
2021/07/26 01:49:50;;;;;;;10.33;5.30;;;23.00;99.90;;;;;;5052993;28;20199;-75
2021/07/26 01:52:17;;;;;;;8.33;5.50;;;23.00;99.90;;;;;;5035305;28;20194;-76
2021/07/26 01:54:43;;;;;;;12.10;4.93;;;23.00;99.90;;;;;;5019884;28;20198;-76
2021/07/26 01:57:10;;;;;;;8.37;4.73;;;23.00;99.90;;;;;;5041250;28;20216;-75
2021/07/26 01:59:38;;;;;;;9.73;5.33;;;23.10;99.90;;;;;;5023192;28;20195;-75
2021/07/26 02:02:04;;;;;;;6.53;4.50;;;23.10;99.90;;;;;;5041085;28;20195;-76
2021/07/26 02:04:31;;;;;;;9.73;5.20;;;23.10;99.90;;;;;;5043205;28;20241;-75
2021/07/26 02:06:57;;;;;;;7.50;4.90;;;23.20;99.90;;;;;;5039113;28;20189;-76
2021/07/26 02:09:23;;;;;;;16.55;5.57;;;23.20;99.90;;;;;;5042374;28;20274;-74
2021/07/26 02:11:49;;;;;;;10.77;5.20;;;23.30;99.90;;;;;;5043752;28;20611;-76
2021/07/26 02:14:16;;;;;;;8.60;5.40;;;23.40;99.90;;;;;;5044247;28;20672;-76
2021/07/26 02:16:42;;;;;;;14.43;6.27;;;23.50;99.90;;;;;;5024571;28;20192;-74
2021/07/26 02:19:09;;;;;;;10.15;6.15;;;23.60;99.90;;;;;;5030002;28;20212;-73
2021/07/26 02:21:35;;;;;;;12.50;6.37;;;23.60;99.90;;;;;;5039985;28;20187;-74
2021/07/26 02:24:02;;;;;;;8.90;6.05;;;23.80;99.90;;;;;;5034612;28;20269;-74
2021/07/26 02:26:28;;;;;;;13.02;6.85;;;23.80;99.90;;;;;;5042599;28;20199;-73
2021/07/26 02:28:54;;;;;;;13.65;6.88;;;24.00;99.90;;;;;;5042078;28;20195;-74
2021/07/26 02:31:21;;;;;;;16.70;7.45;;;24.00;99.90;;;;;;5038691;28;20311;-73
2021/07/26 02:33:47;;;;;;;14.07;6.63;;;23.90;99.90;;;;;;5058271;28;20215;-75
2021/07/26 02:36:14;;;;;;;10.02;5.85;;;23.90;99.90;;;;;;5044452;28;20210;-75
2021/07/26 02:38:40;;;;;;;7.50;5.30;;;23.80;99.90;;;;;;5026907;28;20215;-76
2021/07/26 02:41:15;;;;;;;10.55;4.90;;;23.60;99.90;;;;;;5025052;28;20647;-76
2021/07/26 02:43:42;;;;;;;10.23;5.70;;;23.50;99.90;;;;;;5056473;28;20248;-73
2021/07/26 02:46:10;;;;;;;11.53;4.90;;;23.40;99.90;;;;;;5040180;28;20203;-76
2021/07/26 02:48:39;;;;;;;8.20;5.20;;;23.50;99.90;;;;;;5039284;28;20191;-77
2021/07/26 02:51:06;;;;;;;9.07;4.67;;;23.50;99.90;;;;;;5042683;28;20631;-72
2021/07/26 02:53:33;;;;;;;8.10;5.40;;;23.30;99.90;;;;;;5010340;28;20656;-75
2021/07/26 02:56:00;;;;;;;9.63;4.57;;;23.20;99.90;;;;;;5038474;28;20199;-75
2021/07/26 02:58:27;;;;;;;8.07;5.13;;;23.20;99.90;;;;;;5040955;28;20281;-75
2021/07/26 03:00:53;;;;;;;8.03;5.20;;;23.10;99.90;;;;;;5025114;28;20187;-75
2021/07/26 03:03:19;;;;;;;13.60;5.67;;;23.00;99.90;;;;;;5040736;28;20191;-76
2021/07/26 03:05:45;;;;;;;9.33;5.10;;;23.10;99.90;;;;;;5058312;28;20194;-76
2021/07/26 03:08:12;;;;;;;8.70;5.03;;;23.00;99.90;;;;;;5041265;28;20195;-74
2021/07/26 03:10:38;;;;;;;12.30;5.17;;;23.10;99.90;;;;;;5056751;28;20207;-78
2021/07/26 03:13:04;;;;;;;15.50;5.17;;;23.00;99.90;;;;;;5027644;28;20187;-76
2021/07/26 03:15:31;;;;;;;12.73;5.60;;;23.00;99.90;;;;;;5043904;28;20194;-78
2021/07/26 03:17:57;;;;;;;15.03;5.60;;;23.10;99.90;;;;;;5044527;28;20303;-76
2021/07/26 03:20:24;;;;;;;10.13;5.20;;;23.10;99.90;;;;;;5042661;28;20195;-75
2021/07/26 03:23:05;;;;;;;8.57;5.43;;;23.10;99.90;;;;;;5036027;28;20246;-76
2021/07/26 03:25:37;;;;;;;8.00;5.20;;;23.10;99.90;;;;;;5036896;28;20261;-76
2021/07/26 03:28:04;;;;;;;10.90;4.80;;;23.10;99.90;;;;;;5055765;28;20229;-76
2021/07/26 03:30:30;;;;;;;9.17;5.10;;;23.20;99.90;;;;;;5061784;28;20195;-76
2021/07/26 03:32:57;;;;;;;8.27;5.17;;;23.20;99.90;;;;;;5041654;28;20199;-77
2021/07/26 03:35:24;;;;;;;6.03;5.22;;;23.30;99.90;;;;;;5046945;28;20191;-76
2021/07/26 03:37:53;;;;;;;10.83;5.37;;;23.30;99.90;;;;;;5046786;28;20656;-74
2021/07/26 03:40:21;;;;;;;8.98;5.20;;;23.30;99.90;;;;;;5062352;28;20667;-75
2021/07/26 03:42:48;;;;;;;12.57;5.03;;;23.40;99.90;;;;;;5045780;28;20321;-76
2021/07/26 03:45:19;;;;;;;10.67;5.20;;;23.40;99.90;;;;;;5046010;28;20188;-73
2021/07/26 03:47:47;;;;;;;8.37;5.57;;;23.40;99.90;;;;;;5028688;28;20219;-76
2021/07/26 03:50:14;;;;;;;11.13;4.97;;;23.40;99.90;;;;;;5046247;28;20204;-73
2021/07/26 03:52:55;;;;;;;9.83;4.70;;;23.40;99.90;;;;;;5050318;28;20820;-75
2021/07/26 03:55:31;;;;;;;10.60;4.73;;;23.40;99.90;;;;;;5033023;28;20241;-76
2021/07/26 03:57:58;;;;;;;8.17;5.17;;;23.40;99.90;;;;;;5041645;28;20922;-74
2021/07/26 04:00:27;;;;;;;10.23;5.25;;;23.40;99.90;;;;;;5041378;28;20524;-74
2021/07/26 04:03:19;;;;;;;12.60;5.07;;;23.30;99.90;;;;;;5045092;28;21138;-74
2021/07/26 04:05:50;;;;;;;8.63;4.97;;;23.20;99.90;;;;;;5048685;28;20187;-74
2021/07/26 04:08:30;;;;;;;7.88;4.80;;;23.30;99.90;;;;;;5045400;28;20812;-76
2021/07/26 04:13:34;;;;;;;16.02;5.47;;;23.30;99.90;;;;;;5044486;28;20266;-73
2021/07/26 04:16:01;;;;;;;9.05;5.32;;;23.40;99.90;;;;;;5044776;28;20253;-76
2021/07/26 04:18:28;;;;;;;9.07;5.35;;;23.40;99.90;;;;;;5028106;28;20234;-73
2021/07/26 04:20:56;;;;;;;8.50;4.85;;;23.50;99.90;;;;;;5028764;28;20690;-73
2021/07/26 04:23:23;;;;;;;8.77;5.90;;;23.50;99.90;;;;;;5047342;28;20191;-73
2021/07/26 04:25:50;;;;;;;9.30;5.67;;;23.50;99.90;;;;;;5024606;28;20537;-73
2021/07/26 04:28:17;;;;;;;8.45;5.07;;;23.50;99.90;;;;;;5037092;28;20198;-72
2021/07/26 04:30:45;;;;;;;6.28;4.95;;;23.60;99.90;;;;;;5026144;28;20204;-74
2021/07/26 04:33:11;;;;;;;8.15;5.20;;;23.60;99.90;;;;;;5043526;28;20268;-73
2021/07/26 04:35:37;;;;;;;6.43;5.00;;;23.70;99.90;;;;;;5028474;28;20563;-74
2021/07/26 04:38:04;;;;;;;6.95;4.55;;;23.70;99.90;;;;;;5047573;28;20223;-74
2021/07/26 04:40:30;;;;;;;9.63;4.90;;;23.80;99.90;;;;;;5043569;28;20209;-73
2021/07/26 04:42:56;;;;;;;9.25;5.28;;;23.80;99.90;;;;;;5043339;28;20195;-72
2021/07/26 04:45:23;;;;;;;7.28;5.15;;;23.80;99.90;;;;;;5044533;28;20207;-77
2021/07/26 04:47:49;;;;;;;5.68;4.72;;;23.90;99.90;;;;;;5043782;28;20188;-73
2021/07/26 04:50:16;;;;;;;12.18;5.25;;;23.90;99.90;;;;;;5049259;28;20330;-74
2021/07/26 04:52:44;;;;;;;6.53;4.95;;;24.00;99.90;;;;;;5042669;28;20219;-73
2021/07/26 04:55:11;;;;;;;8.70;5.22;;;24.00;99.90;;;;;;5025731;28;20190;-74
2021/07/26 04:57:38;;;;;;;7.95;4.85;;;24.00;99.90;;;;;;5054421;28;20212;-74
2021/07/26 05:00:05;;;;;;;6.30;4.53;;;24.10;99.90;;;;;;5033686;28;20196;-73
2021/07/26 05:03:15;;;;;;;9.15;5.65;;;24.10;99.90;;;;;;5060252;28;20218;-74
2021/07/26 05:05:42;;;;;;;15.70;5.63;;;24.10;99.90;;;;;;5035520;28;20664;-74
2021/07/26 05:08:09;;;;;;;6.88;4.82;;;24.30;99.90;;;;;;5036595;28;20180;-73
2021/07/26 05:10:35;;;;;;;7.80;5.43;;;24.30;99.90;;;;;;5025187;28;20670;-74
2021/07/26 05:13:02;;;;;;;12.93;5.35;;;24.50;99.90;;;;;;5042012;28;20847;-73
2021/07/26 05:15:28;;;;;;;15.10;5.90;;;24.50;99.90;;;;;;5046940;28;20179;-74
2021/07/26 05:17:56;;;;;;;11.32;5.65;;;24.70;99.90;;;;;;5042553;28;20648;-73
2021/07/26 05:20:23;;;;;;;9.20;5.50;;;24.80;99.90;;;;;;5042746;28;20653;-74
2021/07/26 05:22:50;;;;;;;9.15;5.47;;;24.80;99.90;;;;;;5060400;28;20283;-72
2021/07/26 05:25:16;;;;;;;9.65;5.80;;;24.70;99.90;;;;;;5041100;28;20307;-74
2021/07/26 05:27:43;;;;;;;9.98;5.65;;;24.80;99.90;;;;;;5042715;28;20651;-74
2021/07/26 05:30:10;;;;;;;10.65;5.50;;;24.90;99.90;;;;;;5042865;28;20201;-73
2021/07/26 05:32:37;;;;;;;10.48;5.78;;;24.90;99.90;;;;;;5042277;28;20196;-73
2021/07/26 05:35:04;;;;;;;14.35;5.80;;;24.80;99.90;;;;;;5022660;28;20215;-73
2021/07/26 05:37:30;;;;;;;10.25;5.60;;;24.90;99.90;;;;;;5035834;28;20215;-73
2021/07/26 05:39:57;;;;;;;8.77;5.13;;;25.00;99.90;;;;;;5040494;28;20278;-73
2021/07/26 05:42:23;;;;;;;13.30;5.50;;;25.00;99.90;;;;;;5044601;28;20223;-75
2021/07/26 05:44:50;;;;;;;11.65;5.70;;;24.90;99.90;;;;;;5042332;28;20184;-74
2021/07/26 05:47:16;;;;;;;7.95;5.20;;;25.00;99.90;;;;;;5045800;28;20222;-74
2021/07/26 05:49:43;;;;;;;8.82;5.20;;;25.00;99.90;;;;;;5022998;28;20668;-74
2021/07/26 05:52:10;;;;;;;7.22;4.88;;;25.00;99.90;;;;;;5039168;28;20233;-74
2021/07/26 05:54:36;;;;;;;9.18;5.28;;;25.00;99.90;;;;;;5039432;28;20187;-75
2021/07/26 05:57:09;;;;;;;9.20;5.22;;;25.00;99.90;;;;;;5042813;28;20568;-73
2021/07/26 05:59:36;;;;;;;7.78;5.00;;;25.10;99.90;;;;;;5038615;28;20222;-73
2021/07/26 06:02:03;;;;;;;7.50;4.95;;;25.10;99.90;;;;;;5039317;28;20211;-73
2021/07/26 06:04:30;;;;;;;7.35;5.43;;;25.20;99.90;;;;;;5023779;28;20194;-73
2021/07/26 06:06:58;;;;;;;8.68;4.65;;;25.20;99.90;;;;;;5037777;28;20183;-74
2021/07/26 06:09:26;;;;;;;5.90;4.60;;;25.40;99.90;;;;;;5038980;28;20188;-72
2021/07/26 06:11:54;;;;;;;9.88;5.28;;;25.50;99.90;;;;;;5052370;28;20205;-73
2021/07/26 06:14:22;;;;;;;12.80;4.90;;;25.40;99.90;;;;;;5042780;28;20270;-73
2021/07/26 06:16:52;;;;;;;10.13;4.93;;;25.60;99.90;;;;;;5026283;28;20184;-72
2021/07/26 06:19:21;;;;;;;6.68;5.00;;;25.80;99.90;;;;;;5040170;28;20361;-74
2021/07/26 06:21:52;;;;;;;6.28;4.63;;;25.70;99.90;;;;;;5057978;28;20183;-74
2021/07/26 06:24:21;;;;;;;9.90;4.65;;;25.70;99.90;;;;;;5036999;28;20176;-73
2021/07/26 06:26:48;;;;;;;9.60;4.57;;;25.80;99.90;;;;;;5043173;28;20508;-75
2021/07/26 06:29:16;;;;;;;11.13;4.75;;;26.00;99.90;;;;;;5038326;28;20202;-74
2021/07/26 06:31:43;;;;;;;12.48;4.38;;;26.10;99.90;;;;;;5023521;28;20180;-74
2021/07/26 06:34:10;;;;;;;12.05;4.90;;;26.20;99.90;;;;;;5040600;28;20739;-72
2021/07/26 06:36:42;;;;;;;9.57;4.38;;;26.40;99.90;;;;;;5036549;28;20225;-72
2021/07/26 06:39:09;;;;;;;7.57;4.05;;;26.70;99.90;;;;;;5030126;28;20329;-72
2021/07/26 06:41:37;;;;;;;8.38;4.38;;;26.70;99.90;;;;;;5038224;28;20207;-74
2021/07/26 06:44:04;;;;;;;9.20;4.18;;;26.90;99.90;;;;;;5037899;28;20235;-73
2021/07/26 06:46:31;;;;;;;6.25;3.85;;;27.00;99.90;;;;;;5036664;28;20750;-73
2021/07/26 06:48:57;;;;;;;9.40;4.13;;;27.10;99.90;;;;;;5038821;28;20235;-72
2021/07/26 06:51:24;;;;;;;13.88;4.20;;;27.20;99.90;;;;;;5055692;28;20194;-73
2021/07/26 06:53:50;;;;;;;12.05;4.20;;;27.30;99.90;;;;;;5036978;28;20188;-73
2021/07/26 06:56:17;;;;;;;11.82;4.72;;;27.30;99.90;;;;;;5038178;28;20283;-72
2021/07/26 06:58:43;;;;;;;9.20;4.85;;;27.40;99.90;;;;;;5034646;28;20216;-73
2021/07/26 07:01:15;;;;;;;7.28;3.92;;;27.50;99.90;;;;;;5036852;28;21881;-73
2021/07/26 07:03:43;;;;;;;11.52;4.50;;;27.50;99.90;;;;;;5025517;28;20191;-74
2021/07/26 07:06:13;;;;;;;11.63;4.72;;;27.70;99.90;;;;;;5039983;28;20872;-73
2021/07/26 07:08:42;;;;;;;7.32;4.30;;;27.80;99.90;;;;;;5021492;28;20198;-73
2021/07/26 07:11:18;;;;;;;6.35;3.85;;;28.00;99.90;;;;;;5035955;28;20190;-74
2021/07/26 07:13:48;;;;;;;13.38;4.25;;;28.00;99.90;;;;;;5025191;28;20500;-73
2021/07/26 07:16:17;;;;;;;12.68;4.10;;;28.20;99.90;;;;;;5042966;28;20713;-72
2021/07/26 07:18:46;;;;;;;7.50;4.20;;;28.30;99.90;;;;;;5043080;28;20219;-74
2021/07/26 07:21:23;;;;;;;6.78;4.05;;;28.20;99.90;;;;;;5053693;28;20188;-73
2021/07/26 07:23:51;;;;;;;7.03;4.25;;;28.30;99.90;;;;;;5047465;28;20195;-72
2021/07/26 07:26:20;;;;;;;11.73;4.63;;;28.60;99.90;;;;;;5051187;28;20192;-74
2021/07/26 07:28:46;;;;;;;9.65;4.70;;;28.60;99.90;;;;;;5039275;28;20756;-74
2021/07/26 07:31:16;;;;;;;9.40;4.55;;;28.70;99.90;;;;;;5040151;28;20219;-73
2021/07/26 07:33:44;;;;;;;7.78;4.03;;;28.70;99.90;;;;;;5038504;28;20184;-72
2021/07/26 07:36:10;;;;;;;14.23;4.72;;;28.80;99.90;;;;;;5040242;28;20215;-74
2021/07/26 07:38:38;;;;;;;11.50;5.10;;;28.90;99.90;;;;;;5041080;28;20300;-74
2021/07/26 07:41:05;;;;;;;11.30;4.75;;;28.90;99.90;;;;;;5036336;28;20981;-74
2021/07/26 07:43:33;;;;;;;17.25;4.38;;;28.90;99.90;;;;;;5042744;28;20200;-72
2021/07/26 07:45:59;;;;;;;7.72;4.35;;;29.00;99.90;;;;;;5051513;28;20204;-74
2021/07/26 07:48:27;;;;;;;10.63;4.28;;;29.00;99.90;;;;;;5043246;28;20196;-75
2021/07/26 07:50:56;;;;;;;9.15;4.30;;;29.00;99.90;;;;;;5040307;28;20835;-74
2021/07/26 07:53:24;;;;;;;9.55;4.65;;;29.20;99.90;;;;;;5040781;28;20237;-74
2021/07/26 07:55:55;;;;;;;8.43;3.95;;;29.20;99.90;;;;;;5040655;28;20630;-73
2021/07/26 07:58:21;;;;;;;16.45;4.57;;;29.20;99.90;;;;;;5059238;28;20703;-74
2021/07/26 08:00:53;;;;;;;7.05;4.00;;;29.30;99.90;;;;;;5039555;28;20192;-73
2021/07/26 08:03:20;;;;;;;7.07;4.30;;;29.30;99.90;;;;;;5055809;28;20248;-74
2021/07/26 08:05:48;;;;;;;7.35;4.40;;;29.30;99.90;;;;;;5043189;28;20671;-75
2021/07/26 08:08:17;;;;;;;7.03;3.80;;;29.40;99.90;;;;;;5043393;28;20517;-74
2021/07/26 08:10:45;;;;;;;14.65;4.78;;;29.50;99.90;;;;;;5031161;28;20188;-74
2021/07/26 08:13:11;;;;;;;8.90;4.57;;;29.50;99.90;;;;;;5035168;28;20652;-74
2021/07/26 08:15:51;;;;;;;12.13;4.18;;;29.50;99.90;;;;;;5042739;28;20214;-75
2021/07/26 08:18:19;;;;;;;10.40;4.93;;;29.70;99.90;;;;;;5060562;28;20214;-75
2021/07/26 08:20:46;;;;;;;15.73;4.60;;;29.80;99.90;;;;;;5026594;28;20198;-76
2021/07/26 08:23:14;;;;;;;8.82;4.38;;;29.90;99.90;;;;;;5046228;28;20228;-76
2021/07/26 08:25:41;;;;;;;10.32;4.10;;;29.80;99.90;;;;;;5027696;28;20211;-75
2021/07/26 08:28:08;;;;;;;10.50;4.55;;;29.90;99.90;;;;;;5043468;28;20191;-75
2021/07/26 08:30:37;;;;;;;10.05;4.22;;;29.90;99.90;;;;;;5046214;28;20187;-74
2021/07/26 08:33:04;;;;;;;6.75;4.40;;;30.00;99.90;;;;;;5045646;28;20207;-75
2021/07/26 08:35:30;;;;;;;10.27;4.80;;;30.10;99.90;;;;;;5044274;28;20656;-77
2021/07/26 08:37:57;;;;;;;9.82;4.20;;;30.10;99.90;;;;;;5042566;28;20211;-75
2021/07/26 08:40:28;;;;;;;12.40;4.68;;;30.20;99.90;;;;;;5040872;28;20784;-74
2021/07/26 08:42:58;;;;;;;11.68;4.40;;;30.30;99.90;;;;;;5032700;28;20195;-75
2021/07/26 08:45:24;;;;;;;11.02;3.92;;;30.30;99.90;;;;;;5045128;28;20204;-75
2021/07/26 08:47:52;;;;;;;8.00;3.92;;;30.40;99.90;;;;;;5037964;28;20820;-75
2021/07/26 08:50:20;;;;;;;11.65;4.70;;;30.60;99.90;;;;;;5059100;28;20286;-75
2021/07/26 08:52:49;;;;;;;7.20;3.80;;;30.60;99.90;;;;;;5042584;28;20203;-75
2021/07/26 08:55:18;;;;;;;8.35;3.88;;;30.50;99.90;;;;;;5039670;28;20512;-75
2021/07/26 08:57:50;;;;;;;10.30;4.05;;;30.70;99.90;;;;;;5044686;28;20286;-75
2021/07/26 09:00:23;;;;;;;11.10;4.30;;;30.80;99.90;;;;;;5040622;28;20176;-75
2021/07/26 09:02:51;;;;;;;9.18;3.88;;;30.80;99.90;;;;;;5042517;28;20623;-73
2021/07/26 09:05:20;;;;;;;9.00;3.78;;;30.80;99.90;;;;;;5040738;28;20739;-74
2021/07/26 09:07:49;;;;;;;11.27;4.72;;;30.80;99.90;;;;;;5044117;28;20238;-74
2021/07/26 09:10:24;;;;;;;7.72;3.97;;;31.00;99.90;;;;;;5044615;28;20524;-74
2021/07/26 09:12:54;;;;;;;4.97;3.80;;;30.80;99.90;;;;;;5036733;28;20594;-73
2021/07/26 09:15:25;;;;;;;8.85;3.88;;;31.00;99.90;;;;;;5025360;28;20196;-73
2021/07/26 09:17:52;;;;;;;8.23;3.83;;;30.80;99.90;;;;;;5025518;28;20211;-74
2021/07/26 09:20:20;;;;;;;8.77;3.90;;;31.00;99.90;;;;;;5027645;28;20273;-73
2021/07/26 09:22:47;;;;;;;7.97;4.30;;;31.20;99.90;;;;;;5024345;28;20249;-74
2021/07/26 09:25:24;;;;;;;10.85;4.20;;;31.20;99.90;;;;;;5061168;28;20988;-74
2021/07/26 09:28:03;;;;;;;7.38;3.65;;;31.10;99.90;;;;;;5061599;28;20245;-74
2021/07/26 09:30:41;;;;;;;11.77;3.83;;;31.10;99.90;;;;;;5058838;28;20819;-74
2021/07/26 09:33:35;;;;;;;9.23;3.47;;;31.30;99.90;;;;;;5041212;28;20188;-74
2021/07/26 09:36:18;;;;;;;11.15;4.13;;;31.40;99.90;;;;;;5040904;28;20192;-74
2021/07/26 09:39:02;;;;;;;9.20;3.78;;;31.30;99.90;;;;;;5044500;28;20208;-74
2021/07/26 09:42:01;;;;;;;7.28;3.78;;;31.40;99.90;;;;;;5043112;28;20191;-74
2021/07/26 09:44:29;;;;;;;7.40;3.42;;;31.40;99.90;;;;;;5003920;28;20204;-73
2021/07/26 09:47:19;;;;;;;6.80;3.55;;;31.50;99.90;;;;;;5043085;28;20306;-74
2021/07/26 09:49:45;;;;;;;8.73;3.70;;;31.50;99.90;;;;;;5060454;28;20183;-74
2021/07/26 09:52:12;;;;;;;5.90;3.65;;;31.50;99.90;;;;;;5044099;28;20722;-74
2021/07/26 09:54:47;;;;;;;8.50;3.40;;;31.60;99.90;;;;;;5026586;28;20187;-75
2021/07/26 09:57:26;;;;;;;10.60;3.90;;;31.60;99.90;;;;;;5042316;28;20613;-75
2021/07/26 09:59:55;;;;;;;7.50;3.13;;;31.60;99.90;;;;;;5027893;28;20182;-73
2021/07/26 10:02:24;;;;;;;6.93;3.60;;;31.80;99.90;;;;;;5048174;28;20184;-74
2021/07/26 10:04:50;;;;;;;8.32;3.65;;;31.80;99.90;;;;;;5042124;28;20314;-75
2021/07/26 10:07:19;;;;;;;11.35;4.07;;;31.90;99.90;;;;;;5020397;28;20666;-74
2021/07/26 10:09:47;;;;;;;10.27;4.05;;;31.90;99.90;;;;;;5060148;28;20187;-74
2021/07/26 10:12:20;;;;;;;9.10;4.25;;;32.00;99.90;;;;;;5039908;28;20259;-74
2021/07/26 10:14:49;;;;;;;10.55;3.65;;;32.00;99.90;;;;;;5034886;28;20194;-74
2021/07/26 10:17:16;;;;;;;11.45;3.83;;;32.00;99.90;;;;;;5046332;28;20188;-74
2021/07/26 10:19:43;;;;;;;9.57;3.65;;;32.20;99.90;;;;;;5043976;28;20180;-74
2021/07/26 10:22:20;;;;;;;7.93;3.72;;;32.30;99.90;;;;;;5025040;28;20270;-74
2021/07/26 10:24:54;;;;;;;17.92;4.22;;;32.30;99.90;;;;;;5047604;28;20202;-73
2021/07/26 10:27:27;;;;;;;9.50;3.83;;;32.80;99.90;;;;;;5040521;28;20175;-74
2021/07/26 10:29:58;;;;;;;8.32;3.47;;;34.00;99.90;;;;;;5042622;28;20184;-75
2021/07/26 10:32:31;;;;;;;10.25;3.88;;;34.60;99.90;;;;;;5043735;28;20179;-74
2021/07/26 10:35:19;;;;;;;5.22;3.58;;;34.50;99.90;;;;;;5043202;28;20215;-75
2021/07/26 10:37:48;;;;;;;12.40;3.97;;;34.10;99.90;;;;;;5017472;28;20640;-75
2021/07/26 10:40:29;;;;;;;9.00;4.00;;;33.60;99.90;;;;;;5044250;28;20287;-74
2021/07/26 10:43:01;;;;;;;7.43;3.83;;;33.10;99.90;;;;;;5026902;28;20187;-74
2021/07/26 10:45:36;;;;;;;9.02;3.75;;;33.00;99.90;;;;;;5036653;28;20652;-73
2021/07/26 10:48:22;;;;;;;6.80;3.50;;;32.80;99.90;;;;;;5025017;28;20768;-74
2021/07/26 10:50:51;;;;;;;10.18;3.72;;;32.50;99.90;;;;;;5042154;28;20226;-75
2021/07/26 10:53:36;;;;;;;8.90;3.83;;;32.60;99.90;;;;;;5043546;28;20670;-74
2021/07/26 10:56:15;;;;;;;12.13;3.30;;;32.50;99.90;;;;;;5057067;28;20719;-73
2021/07/26 10:58:42;;;;;;;8.85;3.78;;;32.50;99.90;;;;;;5022851;28;20207;-73
2021/07/26 11:01:23;;;;;;;16.52;3.70;;;32.50;99.90;;;;;;5039080;28;20820;-74
2021/07/26 11:03:53;;;;;;;9.23;4.00;;;32.50;99.90;;;;;;5025155;28;20183;-74
2021/07/26 11:06:35;;;;;;;11.98;3.60;;;32.40;99.90;;;;;;5040457;28;20211;-73
2021/07/26 11:09:24;;;;;;;7.90;3.60;;;32.40;99.90;;;;;;5045883;28;20191;-75
2021/07/26 11:11:53;;;;;;;7.70;3.60;;;32.30;99.90;;;;;;5055650;28;20203;-74
2021/07/26 11:14:20;;;;;;;7.80;4.10;;;32.50;99.90;;;;;;5024937;28;20206;-73
2021/07/26 11:19:49;;;;;;;7.47;3.60;;;32.30;99.90;;;;;;5040154;28;20320;-74
2021/07/26 11:22:20;;;;;;;8.43;3.90;;;32.30;99.90;;;;;;5020930;28;20788;-75
2021/07/26 11:24:50;;;;;;;5.63;3.25;;;32.50;99.90;;;;;;5038797;28;20195;-74
2021/07/26 11:27:27;;;;;;;7.90;4.13;;;32.40;99.90;;;;;;5040571;28;20223;-74
2021/07/26 11:29:55;;;;;;;7.10;3.65;;;32.20;99.90;;;;;;5043996;28;20183;-74
2021/07/26 11:32:27;;;;;;;11.93;4.00;;;32.10;99.90;;;;;;5045593;28;20187;-73
2021/07/26 11:34:56;;;;;;;10.25;3.90;;;32.10;99.90;;;;;;5042781;28;20191;-75
2021/07/26 11:37:42;;;;;;;6.95;3.58;;;32.20;99.90;;;;;;5036957;28;20561;-75
2021/07/26 11:40:11;;;;;;;9.40;3.90;;;32.10;99.90;;;;;;5039037;28;20184;-74
2021/07/26 11:42:45;;;;;;;8.35;3.60;;;32.20;99.90;;;;;;5039444;28;20199;-74
2021/07/26 11:45:17;;;;;;;6.25;3.70;;;32.20;99.90;;;;;;5026123;28;20311;-73
2021/07/26 11:47:48;;;;;;;9.43;4.18;;;32.30;99.90;;;;;;5035250;28;20188;-76
2021/07/26 11:50:18;;;;;;;9.43;3.83;;;32.30;99.90;;;;;;5042290;28;20722;-74
2021/07/26 11:52:58;;;;;;;9.52;3.70;;;32.20;99.90;;;;;;5043150;28;20194;-75
2021/07/26 11:55:50;;;;;;;14.02;4.05;;;32.10;99.90;;;;;;5027405;28;20192;-73
2021/07/26 11:58:28;;;;;;;8.52;3.95;;;31.90;99.90;;;;;;5056971;28;20247;-74
2021/07/26 12:00:58;;;;;;;12.27;3.70;;;32.00;99.90;;;;;;5041227;28;20187;-73
2021/07/26 12:03:26;;;;;;;9.73;4.32;;;32.20;99.90;;;;;;5026814;28;20244;-74
2021/07/26 12:06:03;;;;;;;13.82;4.10;;;32.30;99.90;;;;;;5030171;28;20217;-74
2021/07/26 12:08:30;;;;;;;9.57;3.50;;;32.30;99.90;;;;;;5044367;28;20194;-73
2021/07/26 12:10:56;;;;;;;5.50;3.78;;;32.30;99.90;;;;;;5048543;28;20269;-74
2021/07/26 12:13:42;;;;;;;12.27;3.80;;;32.20;99.90;;;;;;5027581;28;20199;-74
2021/07/26 12:16:12;;;;;;;8.45;3.92;;;32.30;99.90;;;;;;5032777;28;21173;-73
2021/07/26 12:18:38;;;;;;;5.93;3.58;;;32.30;99.90;;;;;;5039204;28;20572;-74
2021/07/26 12:21:06;;;;;;;7.55;3.75;;;32.40;99.90;;;;;;5025751;28;20345;-74
2021/07/26 12:23:36;;;;;;;7.22;3.75;;;32.30;99.90;;;;;;5041897;28;20191;-75
2021/07/26 12:26:09;;;;;;;8.68;4.10;;;32.30;99.90;;;;;;5061094;28;20179;-74
2021/07/26 12:28:49;;;;;;;14.30;4.05;;;32.30;99.90;;;;;;5042522;28;20251;-74
2021/07/26 12:31:29;;;;;;;6.80;4.03;;;32.40;99.90;;;;;;5039331;28;20184;-75
2021/07/26 12:34:21;;;;;;;10.05;3.83;;;32.20;99.90;;;;;;5047849;28;20202;-75
2021/07/26 12:36:48;;;;;;;16.95;4.50;;;32.00;99.90;;;;;;5056434;28;20196;-74
2021/07/26 12:39:17;;;;;;;7.78;3.83;;;32.20;99.90;;;;;;5033927;28;20200;-75
2021/07/26 12:41:45;;;;;;;5.68;3.50;;;32.20;99.90;;;;;;5061435;28;20183;-75
2021/07/26 12:44:26;;;;;;;5.95;3.63;;;32.20;99.90;;;;;;5027211;28;20195;-75
2021/07/26 12:46:53;;;;;;;17.67;4.85;;;32.10;99.90;;;;;;5046673;28;20204;-74
2021/07/26 12:49:27;;;;;;;18.02;3.97;;;32.00;99.90;;;;;;5022731;28;20217;-74
2021/07/26 12:51:55;;;;;;;11.55;3.58;;;31.80;99.90;;;;;;5057449;28;20190;-74
2021/07/26 12:54:21;;;;;;;15.73;4.03;;;32.10;99.90;;;;;;5037484;28;20198;-74
2021/07/26 12:56:48;;;;;;;17.25;3.60;;;32.10;99.90;;;;;;5046487;28;20191;-74
2021/07/26 12:59:15;;;;;;;221.15;14.95;;;32.00;99.90;;;;;;5026950;28;20669;-75
2021/07/26 13:01:41;;;;;;;11.57;3.78;;;32.00;99.90;;;;;;5037301;28;20210;-74
2021/07/26 13:04:10;;;;;;;28.92;4.78;;;32.10;99.90;;;;;;5043104;28;20270;-74